Search for airport 
image banner adimage banner adimage banner ad
image banner ad

30PN - Pittsburgh Children's Hospital

Located in Pittsburgh, United States

ICAO - 30PN, IATA -

Data provided by Airmate  

General information

Coordinates: N40°27'60" W79°57'10"
Elevation is 1088 feet MSL.
Magnetic variation is -09° East
View others Airports in Pennsylvania

Operational data

Special qualification required
Current time UTC:
Current local time:
Weather at : KAGC - Allegheny County ( 13 km )
METAR: KAGC 132136Z 17009G17KT 7SM VCTS -RA BKN011 OVC022 24/21 A2982 RMK AO2 LTG DSNT N AND SE AND NW RAB27 TSB21E36 P0000 T02390206
TAF: KAGC 132126Z 1321/1418 26005KT P6SM VCTS BKN050CB TEMPO 1321/1323 1SM -TSRA OVC010CB FM140000 24004KT P6SM SCT060 FM140800 00000KT 3SM BR SCT250 FM141400 25005KT P6SM SCT040
View NOTAMs / SUP AIP / TFR affecting this airport [VIEW]
Communications frequencies: [VIEW]

Runways:

Airport contact information

Address: Pittsburgh United States

Satellite view of 30PN